sensor_id;sensor_type;location;lat;lon;timestamp;P1;durP1;ratioP1;P2;durP2;ratioP2
39074;SDS011;24826;52.070;20.970;2022-12-04T00:01:28;62.25;;;27.73;;
39074;SDS011;24826;52.070;20.970;2022-12-04T00:04:13;58.40;;;26.38;;
39074;SDS011;24826;52.070;20.970;2022-12-04T00:06:57;66.97;;;28.20;;
39074;SDS011;24826;52.070;20.970;2022-12-04T00:09:41;59.60;;;26.90;;
39074;SDS011;24826;52.070;20.970;2022-12-04T00:12:26;54.13;;;24.77;;
39074;SDS011;24826;52.070;20.970;2022-12-04T00:15:10;56.40;;;24.88;;
39074;SDS011;24826;52.070;20.970;2022-12-04T00:17:55;51.88;;;24.85;;
39074;SDS011;24826;52.070;20.970;2022-12-04T00:20:39;51.42;;;23.73;;
39074;SDS011;24826;52.070;20.970;2022-12-04T00:23:24;49.70;;;22.60;;
39074;SDS011;24826;52.070;20.970;2022-12-04T00:26:09;52.88;;;23.52;;
39074;SDS011;24826;52.070;20.970;2022-12-04T00:29:04;50.55;;;23.52;;
39074;SDS011;24826;52.070;20.970;2022-12-04T00:31:49;50.50;;;24.80;;
39074;SDS011;24826;52.070;20.970;2022-12-04T00:34:33;47.85;;;22.85;;
39074;SDS011;24826;52.070;20.970;2022-12-04T00:37:18;53.35;;;24.08;;
39074;SDS011;24826;52.070;20.970;2022-12-04T00:40:02;54.92;;;25.13;;
39074;SDS011;24826;52.070;20.970;2022-12-04T00:42:47;57.10;;;25.67;;
39074;SDS011;24826;52.070;20.970;2022-12-04T00:45:32;61.88;;;26.33;;
39074;SDS011;24826;52.070;20.970;2022-12-04T00:48:16;59.28;;;25.52;;
39074;SDS011;24826;52.070;20.970;2022-12-04T00:51:01;51.53;;;24.70;;
39074;SDS011;24826;52.070;20.970;2022-12-04T00:53:50;58.53;;;24.95;;
39074;SDS011;24826;52.070;20.970;2022-12-04T00:56:35;61.80;;;26.95;;
39074;SDS011;24826;52.070;20.970;2022-12-04T00:59:20;52.00;;;24.27;;
39074;SDS011;24826;52.070;20.970;2022-12-04T01:02:04;52.50;;;24.05;;
39074;SDS011;24826;52.070;20.970;2022-12-04T01:04:48;55.22;;;24.67;;
39074;SDS011;24826;52.070;20.970;2022-12-04T01:07:33;57.30;;;25.20;;
39074;SDS011;24826;52.070;20.970;2022-12-04T01:10:18;51.72;;;24.05;;
39074;SDS011;24826;52.070;20.970;2022-12-04T01:13:03;56.20;;;24.55;;
39074;SDS011;24826;52.070;20.970;2022-12-04T01:15:48;51.90;;;24.00;;
39074;SDS011;24826;52.070;20.970;2022-12-04T01:18:32;48.95;;;22.65;;
39074;SDS011;24826;52.070;20.970;2022-12-04T01:21:17;50.38;;;23.65;;
39074;SDS011;24826;52.070;20.970;2022-12-04T01:24:03;50.30;;;23.13;;
39074;SDS011;24826;52.070;20.970;2022-12-04T01:26:47;51.30;;;24.80;;
39074;SDS011;24826;52.070;20.970;2022-12-04T01:29:32;51.35;;;24.33;;
39074;SDS011;24826;52.070;20.970;2022-12-04T01:32:17;50.20;;;22.92;;
39074;SDS011;24826;52.070;20.970;2022-12-04T01:35:01;49.65;;;23.05;;
39074;SDS011;24826;52.070;20.970;2022-12-04T01:37:45;52.20;;;23.45;;
39074;SDS011;24826;52.070;20.970;2022-12-04T01:40:30;51.28;;;24.05;;
39074;SDS011;24826;52.070;20.970;2022-12-04T01:43:15;46.47;;;22.70;;
39074;SDS011;24826;52.070;20.970;2022-12-04T01:46:00;53.85;;;23.75;;
39074;SDS011;24826;52.070;20.970;2022-12-04T01:48:47;53.75;;;24.92;;
39074;SDS011;24826;52.070;20.970;2022-12-04T01:51:38;53.17;;;24.50;;
39074;SDS011;24826;52.070;20.970;2022-12-04T01:54:26;52.13;;;22.40;;
39074;SDS011;24826;52.070;20.970;2022-12-04T01:57:14;53.42;;;23.33;;
39074;SDS011;24826;52.070;20.970;2022-12-04T02:00:07;55.45;;;22.95;;
39074;SDS011;24826;52.070;20.970;2022-12-04T02:02:54;53.33;;;23.33;;
39074;SDS011;24826;52.070;20.970;2022-12-04T02:05:39;55.55;;;23.63;;
39074;SDS011;24826;52.070;20.970;2022-12-04T02:08:24;55.65;;;25.20;;
39074;SDS011;24826;52.070;20.970;2022-12-04T02:14:24;55.70;;;23.45;;
39074;SDS011;24826;52.070;20.970;2022-12-04T02:21:08;46.53;;;21.08;;
39074;SDS011;24826;52.070;20.970;2022-12-04T02:23:46;57.00;;;24.00;;
39074;SDS011;24826;52.070;20.970;2022-12-04T02:26:40;50.45;;;22.55;;
39074;SDS011;24826;52.070;20.970;2022-12-04T02:32:38;54.78;;;24.17;;
39074;SDS011;24826;52.070;20.970;2022-12-04T02:35:28;53.25;;;22.85;;
39074;SDS011;24826;52.070;20.970;2022-12-04T02:38:20;51.20;;;22.13;;
39074;SDS011;24826;52.070;20.970;2022-12-04T02:41:12;52.80;;;22.58;;
39074;SDS011;24826;52.070;20.970;2022-12-04T02:44:11;51.95;;;24.20;;
39074;SDS011;24826;52.070;20.970;2022-12-04T02:47:04;50.17;;;22.83;;
39074;SDS011;24826;52.070;20.970;2022-12-04T02:52:50;47.17;;;21.52;;
39074;SDS011;24826;52.070;20.970;2022-12-04T02:55:42;50.40;;;21.27;;
39074;SDS011;24826;52.070;20.970;2022-12-04T02:58:31;46.25;;;20.70;;
39074;SDS011;24826;52.070;20.970;2022-12-04T03:01:20;50.28;;;23.05;;
39074;SDS011;24826;52.070;20.970;2022-12-04T03:04:11;52.27;;;21.87;;
39074;SDS011;24826;52.070;20.970;2022-12-04T03:07:01;48.53;;;21.60;;
39074;SDS011;24826;52.070;20.970;2022-12-04T03:09:51;48.25;;;20.58;;
39074;SDS011;24826;52.070;20.970;2022-12-04T03:12:48;46.87;;;21.00;;
39074;SDS011;24826;52.070;20.970;2022-12-04T03:15:48;43.13;;;19.92;;
39074;SDS011;24826;52.070;20.970;2022-12-04T03:18:38;46.20;;;20.83;;
39074;SDS011;24826;52.070;20.970;2022-12-04T03:21:35;45.15;;;20.38;;
39074;SDS011;24826;52.070;20.970;2022-12-04T03:24:26;50.42;;;20.35;;
39074;SDS011;24826;52.070;20.970;2022-12-04T03:27:34;43.95;;;18.98;;
39074;SDS011;24826;52.070;20.970;2022-12-04T03:30:27;44.60;;;20.95;;
39074;SDS011;24826;52.070;20.970;2022-12-04T03:33:19;40.15;;;19.25;;
39074;SDS011;24826;52.070;20.970;2022-12-04T03:36:13;43.55;;;18.80;;
39074;SDS011;24826;52.070;20.970;2022-12-04T03:42:17;45.05;;;18.58;;
39074;SDS011;24826;52.070;20.970;2022-12-04T03:45:21;45.55;;;19.17;;
39074;SDS011;24826;52.070;20.970;2022-12-04T03:48:25;39.95;;;18.42;;
39074;SDS011;24826;52.070;20.970;2022-12-04T03:54:04;45.17;;;20.38;;
39074;SDS011;24826;52.070;20.970;2022-12-04T03:56:54;43.35;;;19.27;;
39074;SDS011;24826;52.070;20.970;2022-12-04T03:59:48;47.63;;;20.10;;
39074;SDS011;24826;52.070;20.970;2022-12-04T04:02:43;44.15;;;20.35;;
39074;SDS011;24826;52.070;20.970;2022-12-04T04:05:32;51.33;;;20.23;;
39074;SDS011;24826;52.070;20.970;2022-12-04T04:08:21;54.92;;;22.15;;
39074;SDS011;24826;52.070;20.970;2022-12-04T04:11:24;49.67;;;22.67;;
39074;SDS011;24826;52.070;20.970;2022-12-04T04:14:22;50.67;;;21.88;;
39074;SDS011;24826;52.070;20.970;2022-12-04T04:17:29;53.58;;;22.92;;
39074;SDS011;24826;52.070;20.970;2022-12-04T04:20:36;54.50;;;24.27;;
39074;SDS011;24826;52.070;20.970;2022-12-04T04:23:44;54.55;;;23.63;;
39074;SDS011;24826;52.070;20.970;2022-12-04T04:26:51;55.55;;;23.95;;
39074;SDS011;24826;52.070;20.970;2022-12-04T04:29:38;48.55;;;22.30;;
39074;SDS011;24826;52.070;20.970;2022-12-04T04:32:29;57.53;;;22.55;;
39074;SDS011;24826;52.070;20.970;2022-12-04T04:35:20;53.33;;;24.27;;
39074;SDS011;24826;52.070;20.970;2022-12-04T04:38:10;50.53;;;23.08;;
39074;SDS011;24826;52.070;20.970;2022-12-04T04:41:09;51.30;;;22.40;;
39074;SDS011;24826;52.070;20.970;2022-12-04T04:44:10;52.30;;;22.60;;
39074;SDS011;24826;52.070;20.970;2022-12-04T04:47:00;50.95;;;23.20;;
39074;SDS011;24826;52.070;20.970;2022-12-04T04:49:49;49.75;;;22.98;;
39074;SDS011;24826;52.070;20.970;2022-12-04T04:52:37;47.15;;;23.20;;
39074;SDS011;24826;52.070;20.970;2022-12-04T04:55:24;46.95;;;20.98;;
39074;SDS011;24826;52.070;20.970;2022-12-04T04:58:10;50.00;;;21.67;;
39074;SDS011;24826;52.070;20.970;2022-12-04T05:00:57;48.47;;;21.48;;
39074;SDS011;24826;52.070;20.970;2022-12-04T05:03:41;45.65;;;20.27;;
39074;SDS011;24826;52.070;20.970;2022-12-04T05:06:26;48.83;;;22.73;;
39074;SDS011;24826;52.070;20.970;2022-12-04T05:09:10;49.13;;;21.08;;
39074;SDS011;24826;52.070;20.970;2022-12-04T05:11:55;47.15;;;22.13;;
39074;SDS011;24826;52.070;20.970;2022-12-04T05:14:39;50.70;;;22.33;;
39074;SDS011;24826;52.070;20.970;2022-12-04T05:17:24;54.58;;;23.42;;
39074;SDS011;24826;52.070;20.970;2022-12-04T05:20:08;47.97;;;22.50;;
39074;SDS011;24826;52.070;20.970;2022-12-04T05:22:53;54.35;;;23.42;;
39074;SDS011;24826;52.070;20.970;2022-12-04T05:25:38;49.42;;;22.77;;
39074;SDS011;24826;52.070;20.970;2022-12-04T05:28:22;51.08;;;22.40;;
39074;SDS011;24826;52.070;20.970;2022-12-04T05:31:06;51.75;;;23.67;;
39074;SDS011;24826;52.070;20.970;2022-12-04T05:33:51;53.13;;;21.98;;
39074;SDS011;24826;52.070;20.970;2022-12-04T05:36:35;53.58;;;23.02;;
39074;SDS011;24826;52.070;20.970;2022-12-04T05:39:20;49.90;;;24.98;;
39074;SDS011;24826;52.070;20.970;2022-12-04T05:42:04;51.97;;;23.83;;
39074;SDS011;24826;52.070;20.970;2022-12-04T05:44:49;53.35;;;22.95;;
39074;SDS011;24826;52.070;20.970;2022-12-04T05:47:39;48.25;;;22.83;;
39074;SDS011;24826;52.070;20.970;2022-12-04T05:50:25;53.05;;;23.17;;
39074;SDS011;24826;52.070;20.970;2022-12-04T05:53:09;45.72;;;21.20;;
39074;SDS011;24826;52.070;20.970;2022-12-04T05:55:55;47.65;;;22.58;;
39074;SDS011;24826;52.070;20.970;2022-12-04T05:58:43;44.72;;;21.67;;
39074;SDS011;24826;52.070;20.970;2022-12-04T06:01:28;43.53;;;20.52;;
39074;SDS011;24826;52.070;20.970;2022-12-04T06:04:12;46.88;;;21.25;;
39074;SDS011;24826;52.070;20.970;2022-12-04T06:06:57;43.65;;;20.63;;
39074;SDS011;24826;52.070;20.970;2022-12-04T06:09:41;46.42;;;21.83;;
39074;SDS011;24826;52.070;20.970;2022-12-04T06:12:26;46.83;;;21.55;;
39074;SDS011;24826;52.070;20.970;2022-12-04T06:15:10;43.55;;;21.63;;
39074;SDS011;24826;52.070;20.970;2022-12-04T06:17:55;48.65;;;22.95;;
39074;SDS011;24826;52.070;20.970;2022-12-04T06:20:40;48.53;;;22.80;;
39074;SDS011;24826;52.070;20.970;2022-12-04T06:23:24;46.88;;;22.02;;
39074;SDS011;24826;52.070;20.970;2022-12-04T06:26:09;47.78;;;20.55;;
39074;SDS011;24826;52.070;20.970;2022-12-04T06:28:54;46.80;;;21.42;;
39074;SDS011;24826;52.070;20.970;2022-12-04T06:31:40;45.35;;;20.75;;
39074;SDS011;24826;52.070;20.970;2022-12-04T06:34:25;45.78;;;20.00;;
39074;SDS011;24826;52.070;20.970;2022-12-04T06:37:09;46.30;;;21.35;;
39074;SDS011;24826;52.070;20.970;2022-12-04T06:39:54;45.13;;;22.83;;
39074;SDS011;24826;52.070;20.970;2022-12-04T06:42:38;43.13;;;20.45;;
39074;SDS011;24826;52.070;20.970;2022-12-04T06:45:23;42.47;;;20.77;;
39074;SDS011;24826;52.070;20.970;2022-12-04T06:48:07;45.67;;;21.42;;
39074;SDS011;24826;52.070;20.970;2022-12-04T06:51:09;46.67;;;22.45;;
39074;SDS011;24826;52.070;20.970;2022-12-04T06:53:55;44.22;;;19.80;;
39074;SDS011;24826;52.070;20.970;2022-12-04T06:56:40;44.00;;;20.52;;
39074;SDS011;24826;52.070;20.970;2022-12-04T06:59:24;39.80;;;20.55;;
39074;SDS011;24826;52.070;20.970;2022-12-04T07:02:09;41.63;;;20.45;;
39074;SDS011;24826;52.070;20.970;2022-12-04T07:04:54;49.42;;;22.55;;
39074;SDS011;24826;52.070;20.970;2022-12-04T07:07:40;47.17;;;22.33;;
39074;SDS011;24826;52.070;20.970;2022-12-04T07:10:24;48.70;;;21.80;;
39074;SDS011;24826;52.070;20.970;2022-12-04T07:13:09;48.13;;;21.48;;
39074;SDS011;24826;52.070;20.970;2022-12-04T07:15:54;47.10;;;21.90;;
39074;SDS011;24826;52.070;20.970;2022-12-04T07:18:39;48.55;;;21.73;;
39074;SDS011;24826;52.070;20.970;2022-12-04T07:21:24;43.47;;;20.40;;
39074;SDS011;24826;52.070;20.970;2022-12-04T07:24:12;40.53;;;20.73;;
39074;SDS011;24826;52.070;20.970;2022-12-04T07:26:59;44.78;;;20.83;;
39074;SDS011;24826;52.070;20.970;2022-12-04T07:29:43;49.85;;;22.75;;
39074;SDS011;24826;52.070;20.970;2022-12-04T07:32:27;46.25;;;22.65;;
39074;SDS011;24826;52.070;20.970;2022-12-04T07:35:11;44.47;;;20.48;;
39074;SDS011;24826;52.070;20.970;2022-12-04T07:37:56;46.67;;;22.65;;
39074;SDS011;24826;52.070;20.970;2022-12-04T07:40:41;45.50;;;21.25;;
39074;SDS011;24826;52.070;20.970;2022-12-04T07:43:26;43.67;;;20.77;;
39074;SDS011;24826;52.070;20.970;2022-12-04T07:46:17;45.35;;;21.60;;
39074;SDS011;24826;52.070;20.970;2022-12-04T07:49:09;45.05;;;23.40;;
39074;SDS011;24826;52.070;20.970;2022-12-04T07:51:54;44.28;;;20.80;;
39074;SDS011;24826;52.070;20.970;2022-12-04T07:54:38;42.08;;;21.83;;
39074;SDS011;24826;52.070;20.970;2022-12-04T07:57:23;43.97;;;20.70;;
39074;SDS011;24826;52.070;20.970;2022-12-04T08:00:08;42.85;;;21.45;;
39074;SDS011;24826;52.070;20.970;2022-12-04T08:02:53;41.00;;;21.02;;
39074;SDS011;24826;52.070;20.970;2022-12-04T08:05:37;44.40;;;22.23;;
39074;SDS011;24826;52.070;20.970;2022-12-04T08:08:22;40.60;;;21.55;;
39074;SDS011;24826;52.070;20.970;2022-12-04T08:11:07;38.40;;;20.63;;
39074;SDS011;24826;52.070;20.970;2022-12-04T08:13:58;39.97;;;20.73;;
39074;SDS011;24826;52.070;20.970;2022-12-04T08:16:43;40.10;;;21.20;;
39074;SDS011;24826;52.070;20.970;2022-12-04T08:19:27;42.40;;;21.23;;
39074;SDS011;24826;52.070;20.970;2022-12-04T08:22:12;38.85;;;19.67;;
39074;SDS011;24826;52.070;20.970;2022-12-04T08:24:57;46.13;;;22.80;;
39074;SDS011;24826;52.070;20.970;2022-12-04T08:27:41;42.78;;;22.33;;
39074;SDS011;24826;52.070;20.970;2022-12-04T08:30:29;43.05;;;22.08;;
39074;SDS011;24826;52.070;20.970;2022-12-04T08:33:13;44.60;;;21.75;;
39074;SDS011;24826;52.070;20.970;2022-12-04T08:35:58;41.38;;;22.35;;
39074;SDS011;24826;52.070;20.970;2022-12-04T08:38:43;39.85;;;20.92;;
39074;SDS011;24826;52.070;20.970;2022-12-04T08:41:27;41.47;;;21.02;;
39074;SDS011;24826;52.070;20.970;2022-12-04T08:44:11;46.60;;;24.05;;
39074;SDS011;24826;52.070;20.970;2022-12-04T08:46:56;41.83;;;22.40;;
39074;SDS011;24826;52.070;20.970;2022-12-04T08:49:41;39.60;;;21.50;;
39074;SDS011;24826;52.070;20.970;2022-12-04T08:52:25;40.63;;;20.58;;
39074;SDS011;24826;52.070;20.970;2022-12-04T08:55:10;41.03;;;21.95;;
39074;SDS011;24826;52.070;20.970;2022-12-04T08:57:55;40.80;;;21.17;;
39074;SDS011;24826;52.070;20.970;2022-12-04T09:00:39;42.13;;;21.45;;
39074;SDS011;24826;52.070;20.970;2022-12-04T09:03:24;40.97;;;21.83;;
39074;SDS011;24826;52.070;20.970;2022-12-04T09:06:09;41.33;;;21.58;;
39074;SDS011;24826;52.070;20.970;2022-12-04T09:08:55;40.13;;;22.42;;
39074;SDS011;24826;52.070;20.970;2022-12-04T09:11:40;43.55;;;22.15;;
39074;SDS011;24826;52.070;20.970;2022-12-04T09:14:29;39.67;;;21.67;;
39074;SDS011;24826;52.070;20.970;2022-12-04T09:17:13;41.30;;;22.60;;
39074;SDS011;24826;52.070;20.970;2022-12-04T09:19:58;46.10;;;24.35;;
39074;SDS011;24826;52.070;20.970;2022-12-04T09:22:42;43.17;;;23.17;;
39074;SDS011;24826;52.070;20.970;2022-12-04T09:25:27;41.33;;;23.92;;
39074;SDS011;24826;52.070;20.970;2022-12-04T09:28:11;46.00;;;24.45;;
39074;SDS011;24826;52.070;20.970;2022-12-04T09:30:59;39.80;;;22.17;;
39074;SDS011;24826;52.070;20.970;2022-12-04T09:33:45;44.90;;;22.60;;
39074;SDS011;24826;52.070;20.970;2022-12-04T09:36:30;40.72;;;23.45;;
39074;SDS011;24826;52.070;20.970;2022-12-04T09:39:14;46.60;;;23.98;;
39074;SDS011;24826;52.070;20.970;2022-12-04T09:42:04;50.85;;;26.42;;
39074;SDS011;24826;52.070;20.970;2022-12-04T09:45:19;46.50;;;24.98;;
39074;SDS011;24826;52.070;20.970;2022-12-04T09:48:07;46.67;;;24.55;;
39074;SDS011;24826;52.070;20.970;2022-12-04T09:50:55;43.25;;;24.17;;
39074;SDS011;24826;52.070;20.970;2022-12-04T09:53:44;46.72;;;23.45;;
39074;SDS011;24826;52.070;20.970;2022-12-04T09:56:36;43.03;;;22.92;;
39074;SDS011;24826;52.070;20.970;2022-12-04T09:59:22;42.58;;;22.85;;
39074;SDS011;24826;52.070;20.970;2022-12-04T10:05:29;40.75;;;22.58;;
39074;SDS011;24826;52.070;20.970;2022-12-04T10:08:37;43.88;;;22.90;;
39074;SDS011;24826;52.070;20.970;2022-12-04T10:26:38;37.50;;;21.50;;
39074;SDS011;24826;52.070;20.970;2022-12-04T10:29:31;38.25;;;22.05;;
39074;SDS011;24826;52.070;20.970;2022-12-04T10:32:20;36.15;;;20.33;;
39074;SDS011;24826;52.070;20.970;2022-12-04T10:35:21;32.58;;;19.27;;
39074;SDS011;24826;52.070;20.970;2022-12-04T10:38:09;34.25;;;19.40;;
39074;SDS011;24826;52.070;20.970;2022-12-04T10:41:09;34.75;;;20.05;;
39074;SDS011;24826;52.070;20.970;2022-12-04T10:44:01;32.58;;;19.40;;
39074;SDS011;24826;52.070;20.970;2022-12-04T10:46:46;36.72;;;19.23;;
39074;SDS011;24826;52.070;20.970;2022-12-04T10:49:34;36.10;;;20.70;;
39074;SDS011;24826;52.070;20.970;2022-12-04T10:52:20;35.47;;;19.33;;
39074;SDS011;24826;52.070;20.970;2022-12-04T10:55:05;33.03;;;17.88;;
39074;SDS011;24826;52.070;20.970;2022-12-04T10:57:49;36.38;;;19.73;;
39074;SDS011;24826;52.070;20.970;2022-12-04T11:00:34;36.55;;;19.23;;
39074;SDS011;24826;52.070;20.970;2022-12-04T11:03:26;35.17;;;18.40;;
39074;SDS011;24826;52.070;20.970;2022-12-04T11:06:12;33.63;;;17.65;;
39074;SDS011;24826;52.070;20.970;2022-12-04T11:08:57;32.55;;;19.10;;
39074;SDS011;24826;52.070;20.970;2022-12-04T11:11:42;32.58;;;19.65;;
39074;SDS011;24826;52.070;20.970;2022-12-04T11:14:27;30.52;;;17.58;;
39074;SDS011;24826;52.070;20.970;2022-12-04T11:17:13;30.13;;;16.95;;
39074;SDS011;24826;52.070;20.970;2022-12-04T11:20:04;31.17;;;16.95;;
39074;SDS011;24826;52.070;20.970;2022-12-04T11:25:47;28.48;;;15.55;;
39074;SDS011;24826;52.070;20.970;2022-12-04T11:28:33;28.63;;;15.32;;
39074;SDS011;24826;52.070;20.970;2022-12-04T11:31:20;29.40;;;15.50;;
39074;SDS011;24826;52.070;20.970;2022-12-04T11:34:06;27.45;;;15.68;;
39074;SDS011;24826;52.070;20.970;2022-12-04T11:36:57;29.42;;;16.10;;
39074;SDS011;24826;52.070;20.970;2022-12-04T11:39:42;25.85;;;14.43;;
39074;SDS011;24826;52.070;20.970;2022-12-04T11:42:29;25.73;;;13.93;;
39074;SDS011;24826;52.070;20.970;2022-12-04T11:45:19;28.40;;;14.50;;
39074;SDS011;24826;52.070;20.970;2022-12-04T12:00:38;25.95;;;14.35;;
39074;SDS011;24826;52.070;20.970;2022-12-04T12:04:00;28.50;;;15.15;;
39074;SDS011;24826;52.070;20.970;2022-12-04T12:13:21;24.60;;;13.68;;
39074;SDS011;24826;52.070;20.970;2022-12-04T12:22:41;25.73;;;13.88;;
39074;SDS011;24826;52.070;20.970;2022-12-04T12:35:04;27.30;;;14.50;;
39074;SDS011;24826;52.070;20.970;2022-12-04T12:37:58;27.40;;;15.65;;
39074;SDS011;24826;52.070;20.970;2022-12-04T12:40:46;29.77;;;16.25;;
39074;SDS011;24826;52.070;20.970;2022-12-04T12:43:37;27.53;;;15.73;;
39074;SDS011;24826;52.070;20.970;2022-12-04T12:46:24;30.60;;;16.23;;
39074;SDS011;24826;52.070;20.970;2022-12-04T12:49:19;27.75;;;15.52;;
39074;SDS011;24826;52.070;20.970;2022-12-04T12:52:14;26.80;;;14.98;;
39074;SDS011;24826;52.070;20.970;2022-12-04T12:55:15;31.48;;;18.38;;
39074;SDS011;24826;52.070;20.970;2022-12-04T12:58:08;27.95;;;16.60;;
39074;SDS011;24826;52.070;20.970;2022-12-04T13:01:04;27.15;;;15.82;;
39074;SDS011;24826;52.070;20.970;2022-12-04T13:04:11;29.27;;;17.23;;
39074;SDS011;24826;52.070;20.970;2022-12-04T13:07:08;31.17;;;17.10;;
39074;SDS011;24826;52.070;20.970;2022-12-04T13:13:13;30.67;;;17.95;;
39074;SDS011;24826;52.070;20.970;2022-12-04T13:16:10;33.60;;;18.45;;
39074;SDS011;24826;52.070;20.970;2022-12-04T13:19:04;32.35;;;19.02;;
39074;SDS011;24826;52.070;20.970;2022-12-04T13:25:08;28.42;;;17.75;;
39074;SDS011;24826;52.070;20.970;2022-12-04T13:28:10;30.17;;;18.42;;
39074;SDS011;24826;52.070;20.970;2022-12-04T13:34:32;30.50;;;19.30;;
39074;SDS011;24826;52.070;20.970;2022-12-04T13:46:31;30.98;;;18.98;;
39074;SDS011;24826;52.070;20.970;2022-12-04T13:52:21;32.85;;;19.30;;
39074;SDS011;24826;52.070;20.970;2022-12-04T14:01:04;33.50;;;20.00;;
39074;SDS011;24826;52.070;20.970;2022-12-04T14:03:56;31.50;;;19.02;;
39074;SDS011;24826;52.070;20.970;2022-12-04T14:06:42;33.78;;;19.50;;
39074;SDS011;24826;52.070;20.970;2022-12-04T14:09:41;30.67;;;19.73;;
39074;SDS011;24826;52.070;20.970;2022-12-04T14:12:34;36.25;;;21.02;;
39074;SDS011;24826;52.070;20.970;2022-12-04T14:15:22;32.67;;;19.38;;
39074;SDS011;24826;52.070;20.970;2022-12-04T14:21:03;31.55;;;19.95;;
39074;SDS011;24826;52.070;20.970;2022-12-04T14:23:50;32.17;;;20.15;;
39074;SDS011;24826;52.070;20.970;2022-12-04T14:26:35;36.45;;;21.23;;
39074;SDS011;24826;52.070;20.970;2022-12-04T14:29:36;34.47;;;20.27;;
39074;SDS011;24826;52.070;20.970;2022-12-04T14:32:25;32.67;;;19.90;;
39074;SDS011;24826;52.070;20.970;2022-12-04T14:35:16;31.88;;;19.10;;
39074;SDS011;24826;52.070;20.970;2022-12-04T14:38:03;32.20;;;19.70;;
39074;SDS011;24826;52.070;20.970;2022-12-04T14:40:52;33.67;;;20.60;;
39074;SDS011;24826;52.070;20.970;2022-12-04T14:43:39;30.52;;;19.02;;
39074;SDS011;24826;52.070;20.970;2022-12-04T14:46:39;31.27;;;19.35;;
39074;SDS011;24826;52.070;20.970;2022-12-04T14:58:35;35.05;;;20.05;;
39074;SDS011;24826;52.070;20.970;2022-12-04T15:01:22;30.48;;;19.02;;
39074;SDS011;24826;52.070;20.970;2022-12-04T15:07:22;33.83;;;19.40;;
39074;SDS011;24826;52.070;20.970;2022-12-04T15:10:17;34.47;;;20.88;;
39074;SDS011;24826;52.070;20.970;2022-12-04T15:13:29;30.88;;;19.92;;
39074;SDS011;24826;52.070;20.970;2022-12-04T15:16:16;32.60;;;19.15;;
39074;SDS011;24826;52.070;20.970;2022-12-04T15:19:01;32.47;;;19.23;;
39074;SDS011;24826;52.070;20.970;2022-12-04T15:21:45;32.10;;;19.42;;
39074;SDS011;24826;52.070;20.970;2022-12-04T15:24:29;31.77;;;19.20;;
39074;SDS011;24826;52.070;20.970;2022-12-04T15:27:14;32.08;;;19.52;;
39074;SDS011;24826;52.070;20.970;2022-12-04T15:30:02;28.50;;;18.85;;
39074;SDS011;24826;52.070;20.970;2022-12-04T15:32:48;30.67;;;19.13;;
39074;SDS011;24826;52.070;20.970;2022-12-04T15:35:34;30.60;;;18.48;;
39074;SDS011;24826;52.070;20.970;2022-12-04T15:38:22;33.72;;;19.55;;
39074;SDS011;24826;52.070;20.970;2022-12-04T15:41:21;32.72;;;18.77;;
39074;SDS011;24826;52.070;20.970;2022-12-04T15:44:31;28.65;;;17.52;;
39074;SDS011;24826;52.070;20.970;2022-12-04T15:47:19;29.63;;;18.35;;
39074;SDS011;24826;52.070;20.970;2022-12-04T15:53:07;27.77;;;18.15;;
39074;SDS011;24826;52.070;20.970;2022-12-04T15:56:00;30.33;;;18.73;;
39074;SDS011;24826;52.070;20.970;2022-12-04T15:58:53;27.98;;;17.83;;
39074;SDS011;24826;52.070;20.970;2022-12-04T16:01:43;29.20;;;18.42;;
39074;SDS011;24826;52.070;20.970;2022-12-04T16:04:28;31.00;;;18.55;;
39074;SDS011;24826;52.070;20.970;2022-12-04T16:07:20;29.60;;;18.67;;
39074;SDS011;24826;52.070;20.970;2022-12-04T16:10:20;34.53;;;20.00;;
39074;SDS011;24826;52.070;20.970;2022-12-04T16:13:23;29.02;;;18.65;;
39074;SDS011;24826;52.070;20.970;2022-12-04T16:16:11;37.40;;;20.60;;
39074;SDS011;24826;52.070;20.970;2022-12-04T16:19:05;33.47;;;20.75;;
39074;SDS011;24826;52.070;20.970;2022-12-04T16:21:52;33.55;;;20.15;;
39074;SDS011;24826;52.070;20.970;2022-12-04T16:24:37;30.27;;;19.38;;
39074;SDS011;24826;52.070;20.970;2022-12-04T16:27:23;29.80;;;19.27;;
39074;SDS011;24826;52.070;20.970;2022-12-04T16:30:08;31.40;;;19.77;;
39074;SDS011;24826;52.070;20.970;2022-12-04T16:32:53;32.78;;;19.90;;
39074;SDS011;24826;52.070;20.970;2022-12-04T16:35:37;30.65;;;19.95;;
39074;SDS011;24826;52.070;20.970;2022-12-04T16:38:21;30.50;;;18.77;;
39074;SDS011;24826;52.070;20.970;2022-12-04T16:41:06;33.35;;;19.30;;
39074;SDS011;24826;52.070;20.970;2022-12-04T16:43:57;33.03;;;20.30;;
39074;SDS011;24826;52.070;20.970;2022-12-04T16:46:42;30.80;;;19.05;;
39074;SDS011;24826;52.070;20.970;2022-12-04T16:49:27;32.60;;;19.92;;
39074;SDS011;24826;52.070;20.970;2022-12-04T16:52:12;31.15;;;18.63;;
39074;SDS011;24826;52.070;20.970;2022-12-04T16:54:56;34.88;;;20.38;;
39074;SDS011;24826;52.070;20.970;2022-12-04T16:57:40;29.00;;;18.05;;
39074;SDS011;24826;52.070;20.970;2022-12-04T17:00:25;31.77;;;18.95;;
39074;SDS011;24826;52.070;20.970;2022-12-04T17:03:15;30.42;;;18.88;;
39074;SDS011;24826;52.070;20.970;2022-12-04T17:06:03;33.88;;;19.85;;
39074;SDS011;24826;52.070;20.970;2022-12-04T17:08:48;34.85;;;18.98;;
39074;SDS011;24826;52.070;20.970;2022-12-04T17:11:32;30.42;;;18.65;;
39074;SDS011;24826;52.070;20.970;2022-12-04T17:14:17;30.10;;;17.98;;
39074;SDS011;24826;52.070;20.970;2022-12-04T17:17:01;33.30;;;19.00;;
39074;SDS011;24826;52.070;20.970;2022-12-04T17:19:46;31.73;;;18.52;;
39074;SDS011;24826;52.070;20.970;2022-12-04T17:22:30;31.60;;;19.45;;
39074;SDS011;24826;52.070;20.970;2022-12-04T17:25:16;31.85;;;18.13;;
39074;SDS011;24826;52.070;20.970;2022-12-04T17:28:01;29.58;;;17.83;;
39074;SDS011;24826;52.070;20.970;2022-12-04T17:30:45;29.42;;;17.52;;
39074;SDS011;24826;52.070;20.970;2022-12-04T17:33:31;28.02;;;17.05;;
39074;SDS011;24826;52.070;20.970;2022-12-04T17:36:17;27.73;;;17.42;;
39074;SDS011;24826;52.070;20.970;2022-12-04T17:39:03;29.58;;;17.55;;
39074;SDS011;24826;52.070;20.970;2022-12-04T17:41:50;29.20;;;18.35;;
39074;SDS011;24826;52.070;20.970;2022-12-04T17:44:34;27.58;;;17.60;;
39074;SDS011;24826;52.070;20.970;2022-12-04T17:47:19;24.92;;;16.27;;
39074;SDS011;24826;52.070;20.970;2022-12-04T17:50:05;28.83;;;17.17;;
39074;SDS011;24826;52.070;20.970;2022-12-04T17:52:50;29.55;;;18.05;;
39074;SDS011;24826;52.070;20.970;2022-12-04T17:55:35;25.27;;;16.13;;
39074;SDS011;24826;52.070;20.970;2022-12-04T17:58:19;28.63;;;17.77;;
39074;SDS011;24826;52.070;20.970;2022-12-04T18:01:05;29.52;;;17.42;;
39074;SDS011;24826;52.070;20.970;2022-12-04T18:03:58;28.23;;;17.00;;
39074;SDS011;24826;52.070;20.970;2022-12-04T18:06:45;26.73;;;16.50;;
39074;SDS011;24826;52.070;20.970;2022-12-04T18:09:30;23.98;;;14.95;;
39074;SDS011;24826;52.070;20.970;2022-12-04T18:12:15;26.58;;;17.02;;